createdAt,value
2023-04-18T00:00:53.132Z,6.90
2023-04-18T00:03:22.062Z,6.80
2023-04-18T00:05:49.828Z,6.90
2023-04-18T00:08:17.115Z,6.90
2023-04-18T00:10:44.128Z,6.90
2023-04-18T00:13:12.216Z,6.90
2023-04-18T00:15:39.718Z,7.00
2023-04-18T00:18:06.808Z,7.00
2023-04-18T00:20:33.824Z,7.00
2023-04-18T00:23:01.933Z,7.00
2023-04-18T00:25:28.861Z,7.00
2023-04-18T00:27:55.931Z,7.00
2023-04-18T00:30:22.839Z,7.00
2023-04-18T00:32:49.822Z,7.00
2023-04-18T00:35:16.893Z,7.00
2023-04-18T00:37:43.809Z,7.00
2023-04-18T00:40:11.373Z,7.00
2023-04-18T00:42:38.362Z,7.00
2023-04-18T00:45:05.962Z,7.00
2023-04-18T00:47:33.106Z,7.00
2023-04-18T00:50:00.511Z,7.00
2023-04-18T00:52:27.998Z,7.00
2023-04-18T00:54:55.721Z,7.00
2023-04-18T00:57:22.870Z,7.00
2023-04-18T00:59:50.252Z,7.00
2023-04-18T01:02:17.622Z,7.00
2023-04-18T01:04:44.948Z,6.90
2023-04-18T01:07:12.410Z,6.90
2023-04-18T01:09:40.305Z,6.90
2023-04-18T01:12:07.258Z,6.90
2023-04-18T01:14:34.309Z,7.00
2023-04-18T01:17:01.652Z,6.90
2023-04-18T01:19:28.693Z,7.00
2023-04-18T01:21:55.700Z,6.90
2023-04-18T01:24:24.687Z,6.90
2023-04-18T01:26:51.735Z,6.90
2023-04-18T01:29:18.749Z,6.90
2023-04-18T01:31:46.343Z,6.80
2023-04-18T01:34:13.696Z,6.80
2023-04-18T01:36:41.005Z,6.80
2023-04-18T01:39:07.974Z,6.80
2023-04-18T01:41:35.152Z,6.70
2023-04-18T01:44:02.140Z,6.80
2023-04-18T01:46:29.670Z,6.80
2023-04-18T01:48:57.537Z,6.80
2023-04-18T01:51:24.550Z,6.70
2023-04-18T01:53:51.470Z,6.70
2023-04-18T01:56:18.462Z,6.70
2023-04-18T01:58:45.610Z,6.80
2023-04-18T02:01:12.760Z,6.70
2023-04-18T02:03:40.183Z,6.70
2023-04-18T02:06:07.770Z,6.70
2023-04-18T02:08:36.058Z,6.70
2023-04-18T02:11:03.640Z,6.60
2023-04-18T02:13:31.098Z,6.60
2023-04-18T02:15:58.146Z,6.60
2023-04-18T02:18:26.843Z,6.60
2023-04-18T02:20:53.842Z,6.60
2023-04-18T02:23:20.799Z,6.70
2023-04-18T02:25:47.868Z,6.60
2023-04-18T02:28:14.804Z,6.60
2023-04-18T02:30:41.844Z,6.60
2023-04-18T02:33:08.855Z,6.60
2023-04-18T02:35:37.857Z,6.60
2023-04-18T02:38:04.823Z,6.60
2023-04-18T02:40:31.862Z,6.60
2023-04-18T02:42:58.864Z,6.50
2023-04-18T02:45:25.867Z,6.50
2023-04-18T02:47:55.946Z,6.50
2023-04-18T02:50:24.715Z,6.50
2023-04-18T02:52:51.869Z,6.50
2023-04-18T02:55:19.159Z,6.50
2023-04-18T02:57:46.402Z,6.50
2023-04-18T03:00:14.140Z,6.50
2023-04-18T03:02:41.315Z,6.50
2023-04-18T03:05:08.707Z,6.50
2023-04-18T03:07:35.867Z,6.40
2023-04-18T03:10:03.097Z,6.40
2023-04-18T03:12:30.775Z,6.30
2023-04-18T03:14:57.886Z,6.30
2023-04-18T03:17:25.028Z,6.30
2023-04-18T03:19:52.334Z,6.30
2023-04-18T03:22:19.337Z,6.30
2023-04-18T03:24:46.474Z,6.30
2023-04-18T03:27:13.823Z,6.30
2023-04-18T03:29:40.946Z,6.30
2023-04-18T03:32:07.929Z,6.30
2023-04-18T03:34:34.918Z,6.30
2023-04-18T03:37:01.972Z,6.30
2023-04-18T03:39:29.015Z,6.20
2023-04-18T03:41:55.987Z,6.20
2023-04-18T03:44:23.074Z,6.30
2023-04-18T03:46:50.212Z,6.30
2023-04-18T03:49:17.244Z,6.40
2023-04-18T03:51:49.690Z,6.30
2023-04-18T03:54:17.418Z,6.20
2023-04-18T03:56:44.802Z,6.30
2023-04-18T03:59:12.150Z,6.30
2023-04-18T04:01:39.289Z,6.20
2023-04-18T04:04:06.763Z,6.20
2023-04-18T04:06:33.790Z,6.20
2023-04-18T04:09:01.340Z,6.20
2023-04-18T04:11:28.329Z,6.20
2023-04-18T04:13:55.428Z,6.20
2023-04-18T04:16:22.610Z,6.30
2023-04-18T04:18:49.869Z,6.20
2023-04-18T04:21:17.122Z,6.30
2023-04-18T04:23:48.133Z,6.30
2023-04-18T04:26:15.230Z,6.30
2023-04-18T04:28:44.948Z,6.30
2023-04-18T04:31:12.141Z,6.40
2023-04-18T04:33:41.156Z,6.40
2023-04-18T04:36:09.165Z,6.40
2023-04-18T04:38:39.924Z,6.40
2023-04-18T04:41:07.855Z,6.40
2023-04-18T04:43:36.118Z,6.40
2023-04-18T04:46:04.492Z,6.40
2023-04-18T04:48:31.640Z,6.40
2023-04-18T04:51:00.927Z,6.50
2023-04-18T04:53:32.303Z,6.50
2023-04-18T04:55:59.412Z,6.60
2023-04-18T04:58:26.692Z,6.60
2023-04-18T05:00:54.027Z,6.60
2023-04-18T05:03:21.398Z,6.60
2023-04-18T05:05:48.703Z,6.60
2023-04-18T05:08:15.858Z,6.70
2023-04-18T05:10:43.520Z,6.70
2023-04-18T05:13:10.554Z,6.80
2023-04-18T05:15:37.643Z,6.80
2023-04-18T05:18:04.842Z,6.80
2023-04-18T05:20:31.994Z,6.90
2023-04-18T05:22:58.953Z,7.00
2023-04-18T05:25:26.161Z,7.10
2023-04-18T05:27:53.118Z,7.10
2023-04-18T05:30:21.325Z,7.10
2023-04-18T05:32:48.348Z,7.20
2023-04-18T05:35:15.548Z,7.20
2023-04-18T05:37:42.560Z,7.20
2023-04-18T05:40:10.502Z,7.20
2023-04-18T05:42:37.614Z,7.20
2023-04-18T05:45:05.097Z,7.20
2023-04-18T05:47:33.769Z,7.20
2023-04-18T05:50:01.100Z,7.30
2023-04-18T05:52:28.129Z,7.30
2023-04-18T05:54:55.173Z,7.30
2023-04-18T05:57:22.154Z,7.40
2023-04-18T05:59:49.273Z,7.40
2023-04-18T06:02:16.461Z,7.50
2023-04-18T06:04:44.189Z,7.50
2023-04-18T06:07:11.608Z,7.60
2023-04-18T06:09:38.735Z,7.60
2023-04-18T06:12:06.080Z,7.60
2023-04-18T06:14:33.017Z,7.80
2023-04-18T06:17:00.333Z,7.90
2023-04-18T06:19:27.318Z,7.80
2023-04-18T06:21:55.005Z,7.80
2023-04-18T06:24:23.170Z,7.80
2023-04-18T06:26:50.550Z,7.90
2023-04-18T06:29:18.281Z,8.10
2023-04-18T06:31:46.787Z,8.20
2023-04-18T06:34:14.557Z,8.10
2023-04-18T06:36:41.755Z,7.90
2023-04-18T06:39:08.872Z,7.80
2023-04-18T06:41:36.156Z,8.40
2023-04-18T06:44:04.632Z,9.20
2023-04-18T06:46:33.191Z,9.20
2023-04-18T06:49:01.694Z,9.20
2023-04-18T06:51:29.193Z,9.10
2023-04-18T06:53:56.271Z,8.90
2023-04-18T06:56:23.440Z,9.00
2023-04-18T06:58:52.949Z,9.20
2023-04-18T07:01:20.388Z,9.70
2023-04-18T07:03:47.679Z,10.60
2023-04-18T07:06:15.164Z,10.80
2023-04-18T07:08:42.141Z,11.30
2023-04-18T07:11:09.204Z,13.30
2023-04-18T07:13:37.089Z,13.40
2023-04-18T07:16:04.237Z,14.60
2023-04-18T07:18:37.894Z,15.50
2023-04-18T07:21:09.233Z,16.00
2023-04-18T07:23:36.709Z,16.20
2023-04-18T07:26:05.924Z,15.00
2023-04-18T07:28:33.031Z,13.60
2023-04-18T07:31:01.516Z,12.30
2023-04-18T07:33:31.854Z,11.80
2023-04-18T07:35:59.384Z,11.70
2023-04-18T07:38:27.229Z,11.70
2023-04-18T07:41:04.026Z,12.10
2023-04-18T07:43:31.404Z,12.50
2023-04-18T07:45:58.931Z,12.80
2023-04-18T07:48:26.210Z,12.70
2023-04-18T07:50:54.167Z,12.40
2023-04-18T07:53:21.340Z,12.90
2023-04-18T07:55:48.648Z,13.30
2023-04-18T07:58:16.511Z,13.10
2023-04-18T08:00:45.153Z,13.00
2023-04-18T08:03:13.179Z,13.40
2023-04-18T08:05:42.349Z,13.60
2023-04-18T08:08:11.073Z,13.30
2023-04-18T08:10:38.341Z,13.00
2023-04-18T08:13:06.532Z,12.50
2023-04-18T08:15:33.681Z,12.70
2023-04-18T08:18:02.099Z,13.20
2023-04-18T08:20:29.439Z,13.50
2023-04-18T08:23:06.878Z,13.40
2023-04-18T08:25:36.632Z,13.40
2023-04-18T08:28:04.253Z,13.50
2023-04-18T08:30:31.657Z,13.50
2023-04-18T08:33:00.346Z,13.70
2023-04-18T08:35:27.499Z,14.10
2023-04-18T08:37:54.655Z,13.60
2023-04-18T08:40:22.047Z,13.80
2023-04-18T08:42:51.737Z,14.30
2023-04-18T08:45:19.709Z,14.30
2023-04-18T08:47:47.159Z,14.50
2023-04-18T08:50:14.572Z,14.30
2023-04-18T08:52:46.163Z,14.10
2023-04-18T08:55:13.354Z,13.40
2023-04-18T08:57:40.799Z,13.00
2023-04-18T09:00:11.264Z,13.10
2023-04-18T09:02:43.367Z,13.30
2023-04-18T09:05:16.478Z,13.60
2023-04-18T09:07:43.627Z,13.20
2023-04-18T09:10:11.134Z,13.00
2023-04-18T09:12:50.689Z,12.80
2023-04-18T09:15:20.531Z,12.80
2023-04-18T09:17:51.122Z,13.00
2023-04-18T09:20:34.707Z,13.20
2023-04-18T09:23:04.064Z,13.40
2023-04-18T09:25:39.873Z,13.80
2023-04-18T09:28:28.878Z,14.40
2023-04-18T09:30:57.635Z,14.80
2023-04-18T09:33:32.641Z,14.70
2023-04-18T09:36:19.437Z,14.10
2023-04-18T09:38:47.155Z,13.20
2023-04-18T09:41:20.689Z,13.10
2023-04-18T09:43:48.872Z,13.10
2023-04-18T09:46:17.908Z,12.90
2023-04-18T09:48:45.090Z,12.80
2023-04-18T09:51:16.307Z,12.70
2023-04-18T09:53:45.116Z,12.60
2023-04-18T09:56:26.449Z,12.80
2023-04-18T09:59:03.351Z,12.50
2023-04-18T10:01:31.214Z,12.20
2023-04-18T10:04:02.130Z,12.00
2023-04-18T10:06:30.461Z,12.10
2023-04-18T10:08:58.720Z,12.10
2023-04-18T10:11:26.223Z,12.30
2023-04-18T10:13:57.607Z,12.50
2023-04-18T10:16:26.182Z,12.60
2023-04-18T10:18:53.300Z,12.50
2023-04-18T10:21:21.770Z,12.30
2023-04-18T10:23:49.293Z,12.40
2023-04-18T10:26:16.442Z,12.30
2023-04-18T10:28:54.755Z,12.40
2023-04-18T10:31:23.990Z,12.50
2023-04-18T10:34:04.603Z,12.60
2023-04-18T10:36:33.314Z,12.60
2023-04-18T10:39:22.908Z,12.50
2023-04-18T10:41:51.225Z,12.30
2023-04-18T10:44:20.704Z,12.50
2023-04-18T10:46:53.889Z,13.10
2023-04-18T10:49:25.134Z,13.80
2023-04-18T10:51:55.390Z,14.40
2023-04-18T10:54:28.508Z,14.30
2023-04-18T10:56:57.926Z,13.60
2023-04-18T10:59:26.837Z,13.00
2023-04-18T11:02:29.017Z,12.50
2023-04-18T11:04:58.100Z,12.30
2023-04-18T11:07:39.014Z,12.00
2023-04-18T11:10:07.897Z,12.00
2023-04-18T11:12:37.032Z,12.00
2023-04-18T11:15:11.406Z,12.00
2023-04-18T11:17:40.350Z,12.10
2023-04-18T11:20:15.408Z,12.20
2023-04-18T11:22:49.523Z,12.30
2023-04-18T11:25:18.600Z,12.30
2023-04-18T11:27:48.132Z,12.20
2023-04-18T11:30:15.891Z,12.40
2023-04-18T11:32:42.974Z,12.60
2023-04-18T11:35:11.783Z,13.00
2023-04-18T11:37:39.943Z,13.60
2023-04-18T11:40:12.426Z,13.90
2023-04-18T11:42:40.732Z,13.80
2023-04-18T11:45:12.519Z,13.70
2023-04-18T11:47:41.959Z,13.50
2023-04-18T11:50:11.301Z,13.40
2023-04-18T11:52:40.567Z,12.90
2023-04-18T11:55:14.587Z,12.70
2023-04-18T11:57:42.246Z,12.80
2023-04-18T12:00:12.347Z,13.00
2023-04-18T12:02:44.126Z,13.30
2023-04-18T12:05:14.980Z,13.20
2023-04-18T12:07:44.715Z,13.10
2023-04-18T12:10:20.951Z,13.00
2023-04-18T12:12:49.135Z,13.00
2023-04-18T12:15:17.614Z,12.70
2023-04-18T12:17:46.317Z,12.40
2023-04-18T12:20:13.765Z,12.20
2023-04-18T12:22:51.763Z,12.30
2023-04-18T12:25:29.353Z,12.40
2023-04-18T12:28:00.928Z,12.50
2023-04-18T12:30:31.162Z,12.80
2023-04-18T12:33:01.172Z,13.00
2023-04-18T12:35:29.136Z,13.20
2023-04-18T12:37:58.372Z,13.50
2023-04-18T12:40:26.934Z,13.70
2023-04-18T12:42:55.156Z,13.60
2023-04-18T12:45:23.616Z,13.30
2023-04-18T12:47:52.628Z,13.20
2023-04-18T12:50:22.728Z,13.10
2023-04-18T12:52:51.777Z,13.00
2023-04-18T12:55:19.185Z,13.00
2023-04-18T12:57:46.349Z,13.20
2023-04-18T13:00:14.166Z,13.10
2023-04-18T13:02:43.756Z,13.30
2023-04-18T13:05:12.693Z,13.40
2023-04-18T13:07:40.940Z,13.40
2023-04-18T13:10:09.970Z,13.50
2023-04-18T13:12:37.971Z,13.30
2023-04-18T13:15:06.955Z,13.10
2023-04-18T13:17:35.152Z,12.90
2023-04-18T13:20:02.865Z,12.60
2023-04-18T13:22:30.995Z,12.50
2023-04-18T13:24:59.253Z,12.60
2023-04-18T13:27:26.792Z,12.50
2023-04-18T13:29:54.339Z,12.60
2023-04-18T13:32:22.244Z,12.50
2023-04-18T13:34:49.831Z,12.50
2023-04-18T13:37:17.100Z,12.60
2023-04-18T13:39:44.259Z,12.60
2023-04-18T13:42:11.341Z,12.70
2023-04-18T13:44:38.778Z,12.70
2023-04-18T13:47:07.204Z,12.80
2023-04-18T13:49:36.016Z,12.90
2023-04-18T13:52:03.785Z,13.00
2023-04-18T13:54:32.248Z,12.80
2023-04-18T13:57:04.131Z,12.90
2023-04-18T13:59:32.680Z,13.20
2023-04-18T14:01:59.862Z,13.40
2023-04-18T14:04:28.216Z,13.40
2023-04-18T14:06:55.660Z,13.70
2023-04-18T14:09:22.740Z,13.80
2023-04-18T14:11:51.089Z,14.10
2023-04-18T14:14:18.221Z,14.10
2023-04-18T14:16:46.183Z,14.10
2023-04-18T14:19:13.463Z,14.00
2023-04-18T14:21:40.683Z,13.80
2023-04-18T14:24:08.854Z,13.50
2023-04-18T14:26:36.091Z,13.20
2023-04-18T14:29:05.190Z,13.10
2023-04-18T14:31:32.222Z,12.80
2023-04-18T14:33:59.240Z,12.80
2023-04-18T14:36:27.277Z,12.80
2023-04-18T14:38:55.200Z,12.80
2023-04-18T14:41:22.289Z,12.80
2023-04-18T14:43:49.352Z,12.80
2023-04-18T14:46:16.738Z,12.80
2023-04-18T14:48:47.578Z,12.80
2023-04-18T14:51:17.750Z,12.70
2023-04-18T14:53:45.004Z,12.70
2023-04-18T14:56:12.487Z,12.70
2023-04-18T14:58:39.432Z,12.70
2023-04-18T15:01:06.561Z,12.60
2023-04-18T15:03:34.126Z,12.50
2023-04-18T15:06:01.808Z,12.40
2023-04-18T15:08:32.051Z,12.40
2023-04-18T15:10:59.612Z,12.40
2023-04-18T15:13:26.743Z,12.50
2023-04-18T15:15:54.629Z,12.60
2023-04-18T15:18:21.821Z,12.70
2023-04-18T15:20:48.938Z,12.90
2023-04-18T15:23:16.508Z,13.00
2023-04-18T15:25:45.088Z,13.10
2023-04-18T15:28:14.018Z,13.10
2023-04-18T15:30:41.150Z,13.10
2023-04-18T15:33:08.599Z,13.00
2023-04-18T15:35:38.867Z,12.90
2023-04-18T15:38:06.760Z,12.80
2023-04-18T15:40:36.309Z,12.70
2023-04-18T15:43:04.182Z,12.70
2023-04-18T15:45:31.397Z,12.60
2023-04-18T15:47:58.807Z,12.70
2023-04-18T15:50:26.163Z,12.60
2023-04-18T15:52:53.338Z,12.60
2023-04-18T15:55:20.237Z,12.60
2023-04-18T15:57:47.223Z,12.60
2023-04-18T16:00:17.576Z,12.60
2023-04-18T16:02:46.019Z,12.60
2023-04-18T16:05:14.067Z,12.60
2023-04-18T16:07:42.218Z,12.50
2023-04-18T16:10:10.647Z,12.30
2023-04-18T16:12:38.740Z,12.10
2023-04-18T16:15:08.292Z,11.90
2023-04-18T16:17:36.228Z,11.80
2023-04-18T16:20:03.856Z,11.70
2023-04-18T16:22:31.107Z,11.60
2023-04-18T16:24:58.157Z,11.50
2023-04-18T16:27:25.180Z,11.50
2023-04-18T16:29:53.898Z,11.40
2023-04-18T16:32:21.337Z,11.30
2023-04-18T16:34:48.582Z,11.30
2023-04-18T16:37:15.789Z,11.20
2023-04-18T16:39:42.867Z,11.20
2023-04-18T16:42:10.258Z,11.20
2023-04-18T16:44:37.382Z,11.20
2023-04-18T16:47:06.099Z,11.20
2023-04-18T16:49:33.092Z,11.20
2023-04-18T16:52:00.177Z,11.10
2023-04-18T16:54:27.234Z,11.10
2023-04-18T16:56:54.215Z,11.10
2023-04-18T16:59:21.144Z,11.10
2023-04-18T17:01:48.135Z,11.10
2023-04-18T17:04:15.859Z,11.00
2023-04-18T17:06:43.824Z,11.00
2023-04-18T17:09:13.662Z,11.00
2023-04-18T17:11:43.708Z,11.00
2023-04-18T17:14:11.617Z,11.00
2023-04-18T17:16:40.738Z,10.90
2023-04-18T17:19:09.045Z,10.80
2023-04-18T17:21:36.628Z,10.80
2023-04-18T17:24:06.009Z,10.80
2023-04-18T17:26:33.876Z,10.80
2023-04-18T17:29:04.748Z,10.70
2023-04-18T17:31:32.475Z,10.70
2023-04-18T17:34:00.489Z,10.70
2023-04-18T17:36:27.949Z,10.60
2023-04-18T17:38:55.098Z,10.60
2023-04-18T17:41:22.302Z,10.50
2023-04-18T17:43:53.618Z,10.50
2023-04-18T17:46:20.627Z,10.50
2023-04-18T17:48:47.936Z,10.40
2023-04-18T17:51:16.568Z,10.40
2023-04-18T17:53:43.790Z,10.40
2023-04-18T17:56:11.158Z,10.40
2023-04-18T17:58:38.130Z,10.40
2023-04-18T18:01:17.390Z,10.30
2023-04-18T18:03:44.856Z,10.30
2023-04-18T18:06:13.042Z,10.30
2023-04-18T18:08:40.822Z,10.30
2023-04-18T18:11:08.231Z,10.30
2023-04-18T18:13:44.494Z,10.30
2023-04-18T18:16:11.616Z,10.20
2023-04-18T18:18:39.324Z,10.20
2023-04-18T18:21:06.407Z,10.20
2023-04-18T18:23:33.465Z,10.20
2023-04-18T18:26:00.916Z,10.10
2023-04-18T18:28:28.861Z,10.20
2023-04-18T18:30:55.828Z,10.10
2023-04-18T18:33:22.965Z,10.10
2023-04-18T18:35:50.778Z,10.10
2023-04-18T18:38:17.832Z,10.10
2023-04-18T18:40:45.081Z,10.00
2023-04-18T18:43:12.634Z,9.90
2023-04-18T18:45:39.624Z,9.80
2023-04-18T18:48:10.423Z,9.80
2023-04-18T18:50:37.527Z,9.70
2023-04-18T18:53:06.237Z,9.70
2023-04-18T18:55:33.338Z,9.70
2023-04-18T18:58:00.427Z,9.60
2023-04-18T19:00:27.579Z,9.60
2023-04-18T19:02:54.712Z,9.50
2023-04-18T19:05:21.844Z,9.50
2023-04-18T19:07:49.251Z,9.50
2023-04-18T19:10:16.230Z,9.60
2023-04-18T19:12:43.291Z,9.50
2023-04-18T19:15:11.489Z,9.50
2023-04-18T19:17:38.600Z,9.50
2023-04-18T19:20:06.397Z,9.50
2023-04-18T19:22:33.336Z,9.50
2023-04-18T19:25:00.956Z,9.50
2023-04-18T19:27:27.910Z,9.50
2023-04-18T19:29:55.098Z,9.40
2023-04-18T19:32:22.122Z,9.50
2023-04-18T19:34:49.854Z,9.40
2023-04-18T19:37:16.936Z,9.40
2023-04-18T19:39:44.005Z,9.40
2023-04-18T19:42:11.137Z,9.40
2023-04-18T19:44:38.090Z,9.40
2023-04-18T19:47:05.090Z,9.40
2023-04-18T19:49:32.121Z,9.30
2023-04-18T19:51:59.135Z,9.30
2023-04-18T19:54:26.054Z,9.20
2023-04-18T19:56:53.024Z,9.20
2023-04-18T19:59:20.038Z,9.20
2023-04-18T20:01:47.682Z,9.20
2023-04-18T20:04:14.896Z,9.20
2023-04-18T20:06:42.820Z,9.20
2023-04-18T20:09:15.483Z,9.20
2023-04-18T20:11:43.614Z,9.10
2023-04-18T20:14:10.718Z,9.10
2023-04-18T20:16:38.982Z,9.10
2023-04-18T20:19:06.129Z,9.00
2023-04-18T20:21:33.178Z,9.00
2023-04-18T20:24:00.176Z,9.00
2023-04-18T20:26:27.142Z,9.00
2023-04-18T20:28:54.168Z,9.00
2023-04-18T20:31:21.184Z,9.00
2023-04-18T20:33:48.226Z,9.00
2023-04-18T20:36:17.715Z,8.90
2023-04-18T20:38:44.869Z,8.90
2023-04-18T20:41:18.268Z,8.90
2023-04-18T20:43:46.139Z,8.80
2023-04-18T20:46:14.165Z,8.80
2023-04-18T20:48:41.307Z,8.80
2023-04-18T20:51:08.349Z,8.70
2023-04-18T20:53:35.321Z,8.70
2023-04-18T20:56:05.574Z,8.70
2023-04-18T20:58:32.499Z,8.70
2023-04-18T21:00:59.695Z,8.70
2023-04-18T21:03:26.873Z,8.60
2023-04-18T21:05:55.407Z,8.60
2023-04-18T21:08:22.484Z,8.60
2023-04-18T21:10:49.458Z,8.60
2023-04-18T21:13:16.525Z,8.60
2023-04-18T21:15:43.556Z,8.60
2023-04-18T21:18:10.820Z,8.60
2023-04-18T21:20:37.842Z,8.50
2023-04-18T21:23:04.828Z,8.60
2023-04-18T21:25:31.850Z,8.50
2023-04-18T21:27:58.760Z,8.50
2023-04-18T21:30:25.804Z,8.50
2023-04-18T21:32:52.863Z,8.60
2023-04-18T21:35:21.325Z,8.50
2023-04-18T21:37:50.009Z,8.50
2023-04-18T21:40:17.248Z,8.50
2023-04-18T21:42:44.752Z,8.50
2023-04-18T21:45:12.120Z,8.50
2023-04-18T21:47:39.533Z,8.40
2023-04-18T21:50:07.123Z,8.40
2023-04-18T21:52:34.357Z,8.40
2023-04-18T21:55:01.288Z,8.50
2023-04-18T21:57:29.786Z,8.50
2023-04-18T21:59:58.037Z,8.50
2023-04-18T22:02:26.001Z,8.40
2023-04-18T22:04:53.161Z,8.40
2023-04-18T22:07:20.162Z,8.40
2023-04-18T22:09:47.208Z,8.30
2023-04-18T22:12:14.458Z,8.40
2023-04-18T22:14:42.524Z,8.40
2023-04-18T22:17:10.097Z,8.40
2023-04-18T22:19:37.099Z,8.30
2023-04-18T22:22:04.047Z,8.40
2023-04-18T22:24:31.036Z,8.30
2023-04-18T22:26:58.064Z,8.30
2023-04-18T22:29:25.144Z,8.20
2023-04-18T22:31:52.070Z,8.30
2023-04-18T22:34:19.052Z,8.20
2023-04-18T22:36:46.005Z,8.20
2023-04-18T22:39:13.050Z,8.20
2023-04-18T22:41:40.063Z,8.20
2023-04-18T22:44:07.373Z,8.20
2023-04-18T22:46:34.364Z,8.10
2023-04-18T22:49:01.434Z,8.10
2023-04-18T22:51:28.974Z,8.10
2023-04-18T22:53:56.509Z,8.10
2023-04-18T22:56:23.565Z,8.10
2023-04-18T22:58:50.701Z,8.10
2023-04-18T23:01:17.928Z,8.00
2023-04-18T23:03:45.205Z,8.00
2023-04-18T23:06:12.371Z,8.00
2023-04-18T23:08:39.560Z,8.00
2023-04-18T23:11:06.638Z,8.00
2023-04-18T23:13:33.708Z,8.00
2023-04-18T23:16:00.713Z,8.00
2023-04-18T23:18:30.640Z,8.00
2023-04-18T23:20:57.549Z,8.00
2023-04-18T23:23:24.661Z,8.00
2023-04-18T23:25:52.317Z,8.00
2023-04-18T23:28:19.510Z,8.00
2023-04-18T23:30:48.184Z,8.00
2023-04-18T23:33:15.234Z,8.00
2023-04-18T23:35:42.650Z,8.00
2023-04-18T23:38:09.836Z,7.90
2023-04-18T23:40:36.838Z,7.80
2023-04-18T23:43:03.806Z,7.80
2023-04-18T23:45:31.160Z,7.80
2023-04-18T23:47:58.138Z,7.80
2023-04-18T23:50:25.187Z,7.70
2023-04-18T23:52:52.199Z,7.70
2023-04-18T23:55:19.150Z,7.70
2023-04-18T23:57:46.078Z,7.70
